Time;durP1;ratioP1;P1;durP2;ratioP2;P2;SDS_P1;SDS_P2;PMS_P1;PMS_P2;Temp;Humidity;BMP_temperature;BMP_pressure;BME280_temperature;BME280_humidity;BME280_pressure;Samples;Min_cycle;Max_cycle;Signal;HPM_P1;HPM_P2
2022/07/11 00:00:56;;;;;;;2.90;1.40;;;;;;;12.90;69.02;96890.00;5027523;28;20095;-79
2022/07/11 00:03:22;;;;;;;2.03;1.25;;;;;;;12.77;69.03;96886.28;5027272;28;20046;-79
2022/07/11 00:05:50;;;;;;;2.47;1.20;;;;;;;12.71;69.04;96887.56;5027582;28;20053;-80
2022/07/11 00:08:17;;;;;;;5.40;1.23;;;;;;;12.67;69.36;96875.66;5027045;28;20041;-79
2022/07/11 00:10:46;;;;;;;2.35;1.20;;;;;;;12.68;69.57;96881.91;5027406;28;20038;-80
2022/07/11 00:13:12;;;;;;;3.83;1.13;;;;;;;12.73;70.50;96877.09;5026982;28;20049;-79
2022/07/11 00:15:39;;;;;;;2.55;1.25;;;;;;;12.78;70.70;96884.34;5027055;28;20061;-79
2022/07/11 00:18:06;;;;;;;1.80;1.20;;;;;;;12.77;70.36;96877.28;5026870;28;20053;-79
2022/07/11 00:20:32;;;;;;;1.98;1.00;;;;;;;12.78;70.10;96887.09;5027574;28;20392;-79
2022/07/11 00:23:00;;;;;;;3.22;1.10;;;;;;;12.76;69.97;96876.47;5027151;28;20054;-79
2022/07/11 00:25:28;;;;;;;2.92;1.10;;;;;;;12.76;70.04;96879.22;5016876;28;20125;-80
2022/07/11 00:27:54;;;;;;;6.60;1.50;;;;;;;12.72;70.19;96872.78;5007629;28;20054;-79
2022/07/11 00:30:21;;;;;;;1.92;1.30;;;;;;;12.67;70.00;96870.19;5006829;28;20054;-78
2022/07/11 00:32:48;;;;;;;3.25;1.75;;;;;;;12.60;69.87;96875.31;5007461;28;20135;-79
2022/07/11 00:35:14;;;;;;;3.03;1.23;;;;;;;12.62;70.12;96870.34;5007187;28;20127;-79
2022/07/11 00:37:41;;;;;;;2.88;1.40;;;;;;;12.51;70.29;96874.50;5007450;28;20057;-80
2022/07/11 00:40:10;;;;;;;3.63;1.20;;;;;;;12.37;70.57;96871.06;5006974;28;20042;-79
2022/07/11 00:42:37;;;;;;;2.53;1.27;;;;;;;12.50;71.08;96870.97;5007320;28;20050;-79
2022/07/11 00:45:04;;;;;;;2.20;1.38;;;;;;;12.47;70.55;96881.72;5006678;28;20053;-80
2022/07/11 00:47:30;;;;;;;2.70;1.27;;;;;;;12.37;70.82;96871.06;5007239;28;20053;-78
2022/07/11 00:49:57;;;;;;;6.53;1.60;;;;;;;12.23;71.43;96866.53;5007410;28;20042;-79
2022/07/11 00:52:24;;;;;;;2.72;1.40;;;;;;;12.12;71.70;96867.16;5006766;28;20053;-79
2022/07/11 00:54:52;;;;;;;5.25;1.45;;;;;;;12.16;71.36;96865.38;5006915;28;20413;-79
2022/07/11 00:57:20;;;;;;;3.17;1.50;;;;;;;12.11;71.42;96863.63;5006866;28;20046;-79
2022/07/11 00:59:47;;;;;;;2.78;1.10;;;;;;;12.18;71.13;96863.16;5007157;28;20525;-80
2022/07/11 01:02:13;;;;;;;1.95;1.23;;;;;;;12.26;71.06;96860.44;5006689;28;20398;-79
2022/07/11 01:04:40;;;;;;;2.28;1.33;;;;;;;12.21;71.14;96848.84;5007282;28;20065;-78
2022/07/11 01:07:07;;;;;;;2.75;1.40;;;;;;;12.21;71.35;96854.31;5006591;28;20709;-79
2022/07/11 01:09:33;;;;;;;3.92;1.50;;;;;;;12.28;71.53;96850.03;5007142;28;20057;-78
2022/07/11 01:12:01;;;;;;;3.53;1.38;;;;;;;12.34;71.44;96855.34;5006990;28;20050;-79
2022/07/11 01:14:29;;;;;;;6.60;1.48;;;;;;;12.31;71.25;96856.75;5006901;28;20052;-78
2022/07/11 01:16:55;;;;;;;1.92;1.30;;;;;;;12.35;71.30;96856.94;5006914;28;20424;-78
2022/07/11 01:19:21;;;;;;;3.85;1.52;;;;;;;12.35;72.13;96852.28;5006584;28;20054;-78
2022/07/11 01:21:51;;;;;;;3.63;1.60;;;;;;;12.33;70.96;96859.19;5006847;28;20039;-78
2022/07/11 01:24:19;;;;;;;1.67;1.20;;;;;;;12.26;71.65;96854.97;5006143;28;20050;-79
2022/07/11 01:26:47;;;;;;;4.38;1.60;;;;;;;12.14;71.48;96852.06;4988230;28;20440;-79
2022/07/11 01:29:15;;;;;;;3.83;1.70;;;;;;;12.16;72.00;96844.38;4990248;28;20051;-80
2022/07/11 01:31:43;;;;;;;3.13;1.42;;;;;;;12.17;72.58;96850.63;4990681;28;20051;-79
2022/07/11 01:34:09;;;;;;;3.20;1.33;;;;;;;12.16;72.45;96852.56;4990191;28;20046;-78
2022/07/11 01:36:36;;;;;;;3.70;1.55;;;;;;;12.24;72.87;96849.03;4990724;28;20501;-77
2022/07/11 01:39:03;;;;;;;2.83;1.50;;;;;;;12.25;72.90;96847.09;4990024;28;20046;-79
2022/07/11 01:41:31;;;;;;;3.67;1.52;;;;;;;12.22;73.16;96843.09;4990547;28;20065;-79
2022/07/11 01:43:58;;;;;;;3.25;1.67;;;;;;;12.26;73.23;96835.84;4990434;28;20126;-79
2022/07/11 01:46:24;;;;;;;5.07;1.67;;;;;;;12.30;73.77;96837.97;4989981;28;20043;-79
2022/07/11 01:48:51;;;;;;;6.13;1.98;;;;;;;12.28;74.01;96825.44;4990087;28;20042;-79
2022/07/11 01:51:18;;;;;;;3.10;1.77;;;;;;;12.23;72.75;96833.78;4988216;28;20050;-79
2022/07/11 01:53:44;;;;;;;3.42;1.80;;;;;;;12.25;72.65;96826.06;4990127;28;20050;-79
2022/07/11 01:56:11;;;;;;;3.38;1.73;;;;;;;12.26;72.17;96830.41;5005186;28;20053;-79
2022/07/11 01:58:39;;;;;;;2.90;1.40;;;;;;;12.28;72.22;96830.09;5009382;28;20057;-79
2022/07/11 02:01:05;;;;;;;4.80;2.03;;;;;;;12.33;71.36;96827.22;5009270;28;20046;-78
2022/07/11 02:03:32;;;;;;;3.95;2.05;;;;;;;12.23;71.11;96827.53;5009559;28;20082;-78
2022/07/11 02:05:58;;;;;;;3.40;1.95;;;;;;;12.14;71.00;96835.66;5009362;28;20409;-79
2022/07/11 02:08:25;;;;;;;5.93;1.63;;;;;;;12.09;70.69;96830.34;5009069;28;20065;-79
2022/07/11 02:10:53;;;;;;;4.40;1.92;;;;;;;12.06;71.14;96825.53;5009218;28;20522;-79
2022/07/11 02:13:21;;;;;;;2.90;1.65;;;;;;;12.06;71.51;96822.81;5009067;28;20050;-78
2022/07/11 02:15:50;;;;;;;4.25;1.90;;;;;;;12.04;70.93;96827.75;5009554;28;20428;-79
2022/07/11 02:18:17;;;;;;;4.63;2.00;;;;;;;12.05;71.20;96829.38;5008914;28;20062;-79
2022/07/11 02:20:45;;;;;;;3.83;2.17;;;;;;;12.00;71.18;96821.31;5009483;28;20129;-79
2022/07/11 02:23:13;;;;;;;4.20;1.70;;;;;;;12.05;72.69;96826.63;5008746;28;20103;-79
2022/07/11 02:25:39;;;;;;;3.30;1.63;;;;;;;12.06;72.15;96817.34;5020443;28;20085;-80
2022/07/11 02:28:08;;;;;;;2.67;1.50;;;;;;;12.02;71.77;96821.81;5028546;28;20045;-79
2022/07/11 02:30:34;;;;;;;3.70;1.70;;;;;;;12.02;72.84;96821.81;5029039;28;20049;-79
2022/07/11 02:33:02;;;;;;;2.60;1.52;;;;;;;12.05;72.21;96826.63;5028920;28;20125;-79
2022/07/11 02:35:29;;;;;;;2.58;1.73;;;;;;;12.08;72.40;96814.31;5028436;28;20059;-79
2022/07/11 02:37:56;;;;;;;3.28;1.77;;;;;;;12.08;72.96;96819.75;5028725;28;20670;-78
2022/07/11 02:40:22;;;;;;;2.35;1.60;;;;;;;12.04;72.83;96819.56;5028521;28;20052;-79
2022/07/11 02:42:49;;;;;;;3.33;2.03;;;;;;;12.09;73.57;96821.38;5028835;28;20042;-79
2022/07/11 02:45:16;;;;;;;3.53;1.50;;;;;;;12.08;73.54;96819.75;5028200;28;20041;-78
2022/07/11 02:47:42;;;;;;;4.97;1.88;;;;;;;12.11;73.88;96828.13;5028816;28;20054;-79
2022/07/11 02:50:13;;;;;;;2.88;1.77;;;;;;;12.14;74.22;96824.75;5028033;28;20710;-79
2022/07/11 02:52:40;;;;;;;7.45;2.33;;;;;;;12.14;73.44;96829.41;5028599;28;20049;-78
2022/07/11 02:55:09;;;;;;;4.15;1.60;;;;;;;12.14;73.72;96824.75;5021382;28;20046;-78
2022/07/11 02:57:36;;;;;;;4.70;1.85;;;;;;;12.11;73.97;96824.56;5008670;28;20386;-79
2022/07/11 03:00:04;;;;;;;6.72;1.90;;;;;;;12.15;74.07;96826.34;5008610;28;20038;-79
2022/07/11 03:02:31;;;;;;;2.40;1.80;;;;;;;12.13;73.95;96828.59;5008746;28;20050;-79
2022/07/11 03:04:58;;;;;;;4.78;1.80;;;;;;;12.12;73.89;96829.72;5008671;28;20054;-79
2022/07/11 03:07:27;;;;;;;3.30;1.83;;;;;;;12.08;73.78;96825.22;5008232;28;20045;-79
2022/07/11 03:09:53;;;;;;;3.83;1.85;;;;;;;12.15;74.89;96828.28;5008711;28;20054;-79
2022/07/11 03:12:20;;;;;;;6.28;2.30;;;;;;;12.14;74.90;96830.22;5008017;28;20054;-79
2022/07/11 03:14:47;;;;;;;5.50;1.83;;;;;;;12.19;74.45;96823.81;5008677;28;20500;-79
2022/07/11 03:17:14;;;;;;;2.95;2.05;;;;;;;12.26;75.04;96819.47;5007985;28;20053;-79
2022/07/11 03:19:40;;;;;;;3.30;1.98;;;;;;;12.22;74.28;96823.19;5008546;28;20042;-79
2022/07/11 03:22:07;;;;;;;4.97;2.05;;;;;;;12.14;73.59;96816.56;5007933;28;20046;-79
2022/07/11 03:24:36;;;;;;;4.57;2.45;;;;;;;12.20;73.42;96811.75;5007919;28;20506;-78
2022/07/11 03:27:03;;;;;;;5.10;2.03;;;;;;;12.20;73.79;96812.56;5007639;28;20042;-79
2022/07/11 03:29:30;;;;;;;4.55;2.00;;;;;;;12.32;73.25;96816.59;5008087;28;20606;-77
2022/07/11 03:31:57;;;;;;;4.10;2.08;;;;;;;12.35;73.00;96811.31;5006039;28;20489;-78
2022/07/11 03:34:23;;;;;;;4.70;1.75;;;;;;;12.35;73.27;96808.59;5007827;28;20038;-79
2022/07/11 03:36:50;;;;;;;5.63;1.85;;;;;;;12.37;72.46;96817.28;5008164;28;20053;-79
2022/07/11 03:39:16;;;;;;;2.38;1.58;;;;;;;12.41;72.00;96807.31;5007684;28;20042;-78
2022/07/11 03:41:44;;;;;;;4.18;2.08;;;;;;;12.43;71.62;96816.00;5008546;28;20057;-78
2022/07/11 03:44:11;;;;;;;7.65;2.97;;;;;;;12.51;72.27;96811.66;5007850;28;20050;-79
2022/07/11 03:46:38;;;;;;;3.15;1.90;;;;;;;12.54;71.66;96819.25;5008324;28;20061;-79
2022/07/11 03:49:04;;;;;;;4.10;1.88;;;;;;;12.54;71.56;96817.31;5006996;28;20049;-78
2022/07/11 03:51:31;;;;;;;3.80;1.80;;;;;;;12.52;71.45;96818.72;5007730;28;20413;-78
2022/07/11 03:53:58;;;;;;;4.78;2.15;;;;;;;12.38;70.49;96812.63;5007984;28;20050;-79
2022/07/11 03:56:24;;;;;;;4.18;1.88;;;;;;;12.50;71.49;96815.53;5007342;28;20053;-78
2022/07/11 03:58:52;;;;;;;4.05;2.20;;;;;;;12.55;70.91;96820.84;5007937;28;20049;-78
2022/07/11 04:01:19;;;;;;;3.22;1.67;;;;;;;12.44;69.66;96814.06;5007540;28;20068;-79
2022/07/11 04:03:47;;;;;;;6.70;2.28;;;;;;;12.45;69.45;96813.75;5007682;28;20741;-79
2022/07/11 04:06:13;;;;;;;4.57;1.80;;;;;;;12.53;69.94;96820.38;5007330;28;20057;-78
2022/07/11 04:08:40;;;;;;;3.78;1.75;;;;;;;12.62;71.44;96821.16;5007806;28;20050;-79
2022/07/11 04:11:07;;;;;;;2.58;1.77;;;;;;;12.73;71.37;96824.38;5007408;28;20049;-78
2022/07/11 04:13:33;;;;;;;3.58;1.70;;;;;;;12.67;69.37;96826.47;5007869;28;20054;-79
2022/07/11 04:16:01;;;;;;;3.38;1.65;;;;;;;12.69;69.84;96824.25;5007689;28;20057;-78
2022/07/11 04:18:28;;;;;;;4.40;1.77;;;;;;;12.76;70.95;96819.09;5007542;28;20056;-78
2022/07/11 04:20:54;;;;;;;2.85;1.77;;;;;;;12.70;70.89;96819.56;5007707;28;20053;-78
2022/07/11 04:23:21;;;;;;;3.55;1.90;;;;;;;12.74;70.66;96817.81;5006798;28;20060;-78
2022/07/11 04:25:48;;;;;;;3.72;1.50;;;;;;;12.73;69.05;96822.44;5071442;28;20544;-78
2022/07/11 04:28:14;;;;;;;4.25;1.63;;;;;;;12.72;68.89;96829.06;5110114;28;20044;-79
2022/07/11 04:30:41;;;;;;;3.63;1.85;;;;;;;12.65;68.40;96817.81;5110813;28;20047;-79
2022/07/11 04:33:08;;;;;;;4.43;1.63;;;;;;;12.64;69.44;96821.66;5110140;28;20048;-78
2022/07/11 04:35:35;;;;;;;3.67;1.80;;;;;;;12.67;69.15;96823.75;5110398;28;20593;-78
2022/07/11 04:38:02;;;;;;;3.15;1.50;;;;;;;12.60;69.23;96817.97;5110130;28;20419;-77
2022/07/11 04:40:28;;;;;;;3.95;1.50;;;;;;;12.68;68.92;96816.34;5110321;28;20574;-77
2022/07/11 04:42:55;;;;;;;4.68;1.75;;;;;;;12.59;68.94;96823.75;5110612;28;20043;-77
2022/07/11 04:45:22;;;;;;;3.08;1.70;;;;;;;12.65;68.95;96820.53;5110071;28;20073;-78
2022/07/11 04:47:48;;;;;;;4.68;1.52;;;;;;;12.51;69.38;96819.88;5110357;28;20126;-78
2022/07/11 04:50:16;;;;;;;4.05;1.83;;;;;;;12.59;69.71;96821.81;5109929;28;20044;-79
2022/07/11 04:52:43;;;;;;;6.47;1.70;;;;;;;12.68;69.45;96811.69;5110405;28;20043;-78
2022/07/11 04:55:10;;;;;;;3.53;1.35;;;;;;;12.85;69.83;96813.63;5106673;28;20039;-79
2022/07/11 04:57:36;;;;;;;4.32;1.77;;;;;;;12.88;69.09;96817.66;5110248;28;20058;-78
2022/07/11 05:00:05;;;;;;;5.60;1.85;;;;;;;13.01;68.99;96819.44;5109712;28;20536;-78
2022/07/11 05:02:31;;;;;;;5.13;1.98;;;;;;;13.06;71.08;96830.19;5114194;28;20039;-77
2022/07/11 05:04:58;;;;;;;6.10;2.13;;;;;;;13.17;71.60;96836.94;5114232;28;20046;-78
2022/07/11 05:07:26;;;;;;;2.28;1.70;;;;;;;13.26;71.56;96842.47;5114116;28;20044;-78
2022/07/11 05:09:53;;;;;;;4.82;1.65;;;;;;;13.25;72.45;96840.81;5114206;27;20043;-78
2022/07/11 05:12:20;;;;;;;3.25;1.75;;;;;;;13.31;71.95;96847.72;5113651;27;20083;-78
2022/07/11 05:14:46;;;;;;;4.22;1.70;;;;;;;13.34;71.47;96849.03;5114268;28;20079;-78
2022/07/11 05:17:13;;;;;;;4.20;1.60;;;;;;;13.45;71.12;96844.81;5113675;27;20052;-78
2022/07/11 05:19:39;;;;;;;6.18;2.15;;;;;;;13.54;70.70;96853.81;5114120;28;20052;-78
2022/07/11 05:22:06;;;;;;;5.47;1.55;;;;;;;13.56;69.74;96846.88;5113596;27;20054;-78
2022/07/11 05:24:34;;;;;;;4.22;1.50;;;;;;;13.27;66.72;96855.78;5101073;28;20051;-79
2022/07/11 05:27:00;;;;;;;2.67;1.35;;;;;;;13.37;67.80;96846.47;5010194;28;20683;-78
2022/07/11 05:29:27;;;;;;;4.05;1.50;;;;;;;13.34;67.66;96851.75;5010216;28;20049;-78
2022/07/11 05:31:53;;;;;;;4.95;1.27;;;;;;;13.25;67.60;96860.75;5010214;28;20061;-79
2022/07/11 05:34:20;;;;;;;3.60;1.40;;;;;;;13.38;68.48;96860.94;5009770;28;20049;-79
2022/07/11 05:36:47;;;;;;;2.17;1.35;;;;;;;13.47;69.43;96859.00;5010093;28;20069;-79
2022/07/11 05:39:15;;;;;;;2.80;1.42;;;;;;;13.54;69.63;96860.09;5009818;28;20046;-78
2022/07/11 05:41:43;;;;;;;2.97;1.42;;;;;;;13.61;70.92;96856.88;5010142;28;20066;-78
2022/07/11 05:44:09;;;;;;;3.28;1.80;;;;;;;13.66;71.18;96856.69;5009549;28;20133;-78
2022/07/11 05:46:39;;;;;;;3.72;1.50;;;;;;;13.68;69.30;96859.94;5010158;28;20057;-80
2022/07/11 05:49:06;;;;;;;2.53;1.38;;;;;;;13.71;70.21;96862.00;5009668;28;20140;-79
2022/07/11 05:51:32;;;;;;;6.68;2.30;;;;;;;13.84;70.64;96869.22;5009792;28;20056;-78
2022/07/11 05:53:59;;;;;;;3.72;1.50;;;;;;;13.86;70.11;96873.56;5009704;28;20046;-79
2022/07/11 05:56:26;;;;;;;3.75;1.20;;;;;;;13.87;69.08;96867.75;5009410;28;20050;-78
2022/07/11 05:58:54;;;;;;;3.97;1.55;;;;;;;13.77;67.61;96871.63;5009650;28;20130;-78
2022/07/11 06:01:21;;;;;;;3.03;1.38;;;;;;;13.91;69.02;96874.19;5009092;28;20073;-80
2022/07/11 06:03:48;;;;;;;3.35;1.30;;;;;;;13.97;69.18;96872.06;5009757;28;20042;-79
2022/07/11 06:06:16;;;;;;;6.72;1.40;;;;;;;13.99;68.20;96870.63;5009375;28;20046;-78
2022/07/11 06:08:43;;;;;;;5.38;1.50;;;;;;;13.96;67.95;96865.00;5009966;28;20119;-77
2022/07/11 06:11:11;;;;;;;3.00;1.45;;;;;;;13.99;68.22;96867.06;5009125;28;20042;-78
2022/07/11 06:13:38;;;;;;;6.00;1.58;;;;;;;13.97;68.88;96867.41;5008978;28;20133;-79
2022/07/11 06:16:07;;;;;;;3.22;1.20;;;;;;;14.08;70.21;96862.38;5009154;28;20054;-78
2022/07/11 06:18:33;;;;;;;4.22;1.42;;;;;;;14.09;70.97;96864.81;5009708;28;20061;-78
2022/07/11 06:21:00;;;;;;;2.45;1.40;;;;;;;14.21;70.35;96871.50;5009287;28;20050;-78
2022/07/11 06:23:27;;;;;;;4.03;1.45;;;;;;;14.05;68.41;96865.78;5008956;28;20472;-77
2022/07/11 06:25:53;;;;;;;4.20;1.30;;;;;;;14.16;68.25;96868.97;5009143;28;20053;-78
2022/07/11 06:28:20;;;;;;;7.18;1.48;;;;;;;14.23;69.42;96864.56;5009068;28;20049;-80
2022/07/11 06:30:46;;;;;;;3.65;1.38;;;;;;;14.33;70.22;96863.41;5009477;28;20050;-79
2022/07/11 06:33:16;;;;;;;2.20;1.27;;;;;;;14.17;69.03;96859.59;5008487;28;20693;-80
2022/07/11 06:35:43;;;;;;;4.25;1.30;;;;;;;14.22;67.58;96868.44;5009331;28;20053;-78
2022/07/11 06:38:09;;;;;;;5.45;1.70;;;;;;;14.36;68.89;96862.75;5008826;28;20063;-81
2022/07/11 06:40:36;;;;;;;4.28;1.60;;;;;;;14.25;67.39;96869.69;5009447;28;20054;-80
2022/07/11 06:43:03;;;;;;;3.05;1.30;;;;;;;14.33;67.82;96868.88;5008777;28;20083;-80
2022/07/11 06:45:29;;;;;;;8.55;1.52;;;;;;;14.44;70.16;96863.81;5009257;28;20049;-80
2022/07/11 06:47:56;;;;;;;5.97;1.67;;;;;;;14.47;68.40;96865.91;5009159;28;20515;-79
2022/07/11 06:50:24;;;;;;;4.97;1.20;;;;;;;14.59;68.07;96866.84;5008511;28;20045;-77
2022/07/11 06:52:50;;;;;;;2.80;1.30;;;;;;;14.71;68.75;96865.31;5008830;28;20052;-80
2022/07/11 06:55:17;;;;;;;4.65;1.30;;;;;;;14.80;67.96;96866.06;5016570;28;20046;-79
2022/07/11 06:57:44;;;;;;;5.63;1.40;;;;;;;14.57;67.74;96855.41;5028709;28;20053;-79
2022/07/11 07:00:11;;;;;;;8.00;1.73;;;;;;;14.45;67.03;96859.94;5028087;28;20048;-79
2022/07/11 07:02:38;;;;;;;4.95;1.85;;;;;;;14.46;67.01;96856.06;5028566;28;20528;-79
2022/07/11 07:05:06;;;;;;;3.22;1.40;;;;;;;14.66;68.06;96860.81;5027981;28;20046;-79
2022/07/11 07:07:33;;;;;;;5.55;1.60;;;;;;;14.77;67.49;96867.53;5028358;28;20124;-79
2022/07/11 07:10:00;;;;;;;3.80;1.63;;;;;;;14.77;69.32;96862.06;5028400;28;20050;-79
2022/07/11 07:12:27;;;;;;;4.70;1.20;;;;;;;14.97;66.28;96865.13;5027979;28;20454;-80
2022/07/11 07:14:53;;;;;;;4.82;1.40;;;;;;;14.99;66.17;96857.41;5028050;28;20054;-80
2022/07/11 07:17:20;;;;;;;3.50;1.58;;;;;;;15.15;64.94;96866.63;5027718;28;20084;-79
2022/07/11 07:19:47;;;;;;;7.00;1.38;;;;;;;15.23;64.24;96863.00;5028192;28;20053;-79
2022/07/11 07:22:15;;;;;;;2.83;1.10;;;;;;;15.21;67.29;96864.47;5027782;28;20050;-79
2022/07/11 07:24:44;;;;;;;4.78;1.20;;;;;;;15.04;67.60;96870.91;5022924;28;20046;-80
2022/07/11 07:27:11;;;;;;;4.65;1.30;;;;;;;15.18;67.87;96865.94;5007773;28;20444;-79
2022/07/11 07:29:38;;;;;;;3.25;1.23;;;;;;;15.33;64.39;96868.06;5008392;28;20443;-79
2022/07/11 07:32:05;;;;;;;2.65;0.88;;;;;;;15.45;63.21;96861.81;5007962;28;20045;-79
2022/07/11 07:34:32;;;;;;;4.95;1.20;;;;;;;15.63;64.50;96866.06;5008180;28;20045;-79
2022/07/11 07:36:59;;;;;;;4.53;1.67;;;;;;;15.65;64.75;96868.47;5008227;28;20046;-80
2022/07/11 07:39:25;;;;;;;3.63;1.55;;;;;;;15.65;64.93;96869.25;5007874;28;20400;-79
2022/07/11 07:41:53;;;;;;;3.97;1.02;;;;;;;15.70;64.13;96871.00;5008194;28;20050;-78
2022/07/11 07:44:20;;;;;;;3.85;1.20;;;;;;;15.78;65.68;96867.38;5007613;28;20443;-79
2022/07/11 07:46:47;;;;;;;3.50;1.17;;;;;;;15.82;64.86;96868.28;5008131;28;20111;-79
2022/07/11 07:49:13;;;;;;;7.18;1.40;;;;;;;15.91;64.82;96870.94;5007649;28;20642;-78
2022/07/11 07:51:40;;;;;;;2.90;1.10;;;;;;;15.79;62.96;96868.97;5007922;28;20079;-77
2022/07/11 07:54:06;;;;;;;5.47;1.35;;;;;;;15.85;63.75;96867.59;5007433;28;20058;-77
2022/07/11 07:56:33;;;;;;;2.75;1.30;;;;;;;15.93;64.04;96867.88;5007869;28;20057;-78
2022/07/11 07:59:01;;;;;;;3.80;1.30;;;;;;;15.97;62.93;96863.28;5007759;28;20049;-77
2022/07/11 08:01:35;;;;;;;4.97;1.20;;;;;;;16.07;64.61;96862.84;5007680;28;20693;-77
2022/07/11 08:04:02;;;;;;;4.22;1.40;;;;;;;16.25;63.36;96863.44;5007376;28;20509;-79
2022/07/11 08:06:29;;;;;;;4.68;1.08;;;;;;;16.50;62.91;96865.06;5007586;28;20054;-78
2022/07/11 08:08:55;;;;;;;3.40;1.02;;;;;;;16.64;59.64;96859.19;5007559;28;20054;-78
2022/07/11 08:11:22;;;;;;;6.90;1.30;;;;;;;16.71;59.62;96853.97;5007233;28;20625;-78
2022/07/11 08:13:49;;;;;;;5.57;1.30;;;;;;;16.87;59.52;96852.13;5007488;28;20050;-79
2022/07/11 08:16:17;;;;;;;4.95;1.38;;;;;;;16.88;57.81;96853.72;5007259;28;20046;-78
2022/07/11 08:18:44;;;;;;;3.45;1.38;;;;;;;17.27;60.67;96858.78;5007805;28;20050;-77
2022/07/11 08:21:10;;;;;;;6.13;1.30;;;;;;;17.50;55.46;96856.28;5007066;28;20492;-77
2022/07/11 08:23:37;;;;;;;2.55;1.00;;;;;;;17.61;56.86;96857.38;5007422;28;20065;-78
2022/07/11 08:26:04;;;;;;;1.63;0.88;;;;;;;17.31;56.56;96843.97;5021494;28;20050;-79
2022/07/11 08:28:31;;;;;;;1.65;1.02;;;;;;;17.05;57.45;96847.13;5027146;28;20408;-78
2022/07/11 08:30:57;;;;;;;3.75;1.10;;;;;;;17.15;56.98;96854.09;5027205;28;20042;-77
2022/07/11 08:33:25;;;;;;;4.47;1.02;;;;;;;17.26;58.24;96849.72;5026830;28;20086;-78
2022/07/11 08:35:52;;;;;;;5.85;1.40;;;;;;;17.27;60.07;96859.56;5026605;28;20045;-78
2022/07/11 08:38:18;;;;;;;8.38;1.45;;;;;;;16.92;59.43;96859.34;5026915;28;20050;-77
2022/07/11 08:40:45;;;;;;;3.75;1.30;;;;;;;16.90;59.29;96856.91;5027279;28;20057;-77
2022/07/11 08:43:15;;;;;;;6.70;1.42;;;;;;;16.93;56.71;96858.97;5026530;28;20049;-78
2022/07/11 08:45:42;;;;;;;4.40;1.17;;;;;;;17.14;57.12;96856.06;5026916;28;20042;-77
2022/07/11 08:48:09;;;;;;;4.35;1.17;;;;;;;17.13;59.12;96848.16;5026436;28;20041;-78
2022/07/11 08:50:38;;;;;;;4.30;1.38;;;;;;;17.27;57.84;96848.56;5026907;28;20483;-77
2022/07/11 08:53:06;;;;;;;6.45;1.27;;;;;;;17.12;56.43;96835.53;5026572;28;20515;-78
2022/07/11 08:55:33;;;;;;;5.80;1.98;;;;;;;17.09;57.28;96842.53;5016115;28;20058;-79
2022/07/11 08:57:59;;;;;;;5.35;1.30;;;;;;;17.20;57.28;96837.34;5007088;28;20049;-78
2022/07/11 09:00:26;;;;;;;3.10;1.20;;;;;;;17.34;60.73;96840.53;5006783;28;20072;-79
2022/07/11 09:02:54;;;;;;;4.55;1.08;;;;;;;17.73;59.34;96835.31;5007069;28;20054;-78
2022/07/11 09:05:20;;;;;;;4.95;1.00;;;;;;;18.26;59.08;96835.88;5006215;28;20050;-77
2022/07/11 09:07:50;;;;;;;3.28;1.00;;;;;;;18.61;59.06;96832.41;5006984;28;20046;-79
2022/07/11 09:10:17;;;;;;;5.72;0.77;;;;;;;18.86;54.73;96836.56;5006485;28;20069;-77
2022/07/11 09:13:00;;;;;;;14.63;1.27;;;;;;;18.45;53.67;96827.72;5006681;28;20046;-78
2022/07/11 09:15:33;;;;;;;1.80;0.77;;;;;;;18.24;54.81;96825.22;5007807;28;20103;-78
2022/07/11 09:18:00;;;;;;;1.40;0.77;;;;;;;18.30;56.18;96833.22;5006706;28;20049;-78
2022/07/11 09:25:19;;;;;;;4.47;0.80;;;;;;;17.97;56.32;96832.44;5006760;28;20106;-77
2022/07/11 09:26:06;;;;;;;1.65;0.60;;;;;;;17.37;56.82;96837.06;5019151;28;20471;-77
2022/07/11 09:28:33;;;;;;;2.83;0.70;;;;;;;17.07;57.74;96838.53;5026761;28;20046;-77
2022/07/11 09:31:00;;;;;;;1.40;0.63;;;;;;;16.88;58.33;96831.72;5026299;28;20065;-78
2022/07/11 09:33:26;;;;;;;2.47;0.80;;;;;;;16.89;60.87;96833.31;5026093;28;21049;-78
2022/07/11 09:35:54;;;;;;;3.42;1.08;;;;;;;16.74;60.27;96842.25;5026422;28;20049;-77
2022/07/11 09:38:22;;;;;;;2.28;0.80;;;;;;;16.62;59.59;96839.50;5025926;28;20049;-78
2022/07/11 09:40:49;;;;;;;2.17;1.00;;;;;;;16.66;60.74;96840.44;5026344;28;20077;-78
2022/07/11 09:43:25;;;;;;;2.72;0.93;;;;;;;16.73;61.37;96851.66;5026106;28;20048;-78
2022/07/11 09:45:51;;;;;;;1.65;0.80;;;;;;;16.75;61.42;96837.56;5026221;28;20045;-79
2022/07/11 09:48:18;;;;;;;2.03;0.90;;;;;;;16.81;61.60;96837.00;5027320;28;20508;-78
2022/07/11 09:51:00;;;;;;;2.22;0.88;;;;;;;16.82;61.09;96843.31;5029699;28;20045;-78
2022/07/11 09:53:28;;;;;;;2.53;1.08;;;;;;;16.82;62.06;96833.09;5029564;28;20498;-79
2022/07/11 09:55:54;;;;;;;1.77;1.00;;;;;;;17.08;62.08;96832.69;5015661;28;20492;-77
2022/07/11 09:58:28;;;;;;;4.82;0.90;;;;;;;17.20;63.44;96831.84;5009336;28;20049;-77
2022/07/11 10:00:55;;;;;;;1.77;0.80;;;;;;;17.35;59.70;96833.06;5009814;28;20053;-77
2022/07/11 10:03:25;;;;;;;4.32;1.10;;;;;;;17.53;62.08;96833.56;5009054;28;20062;-78
2022/07/11 10:05:51;;;;;;;3.80;1.02;;;;;;;17.81;57.76;96834.38;5009778;28;20107;-77
2022/07/11 10:08:18;;;;;;;1.33;0.70;;;;;;;17.92;56.53;96835.44;5009243;28;20050;-77
2022/07/11 10:10:46;;;;;;;1.90;0.70;;;;;;;18.08;58.09;96832.69;5009687;28;20052;-79
2022/07/11 10:13:12;;;;;;;3.40;0.90;;;;;;;17.89;57.06;96835.34;5009085;28;20057;-77
2022/07/11 10:15:42;;;;;;;2.00;0.60;;;;;;;17.89;58.65;96835.34;5009859;28;20050;-77
2022/07/11 10:18:15;;;;;;;1.88;0.82;;;;;;;17.86;57.67;96831.34;5008835;28;20081;-78
2022/07/11 10:20:47;;;;;;;3.63;0.88;;;;;;;17.95;57.50;96834.72;5009444;28;20412;-78
2022/07/11 10:23:22;;;;;;;1.30;0.60;;;;;;;17.69;58.52;96837.13;5008624;28;20058;-78
2022/07/11 10:25:57;;;;;;;2.55;0.80;;;;;;;17.85;59.55;96843.50;5009432;28;20046;-77
2022/07/11 10:28:27;;;;;;;1.95;0.88;;;;;;;17.86;60.05;96841.56;5009214;28;20046;-79
2022/07/11 10:30:59;;;;;;;1.48;0.63;;;;;;;17.81;59.31;96839.88;5009261;28;20046;-78
2022/07/11 10:33:26;;;;;;;1.83;0.80;;;;;;;17.52;59.38;96843.75;5008886;28;20056;-78
2022/07/11 10:35:54;;;;;;;1.17;0.80;;;;;;;17.35;60.43;96850.38;5009179;28;20425;-77
2022/07/11 10:38:21;;;;;;;4.07;1.13;;;;;;;17.25;61.28;96850.88;5008859;28;20049;-77
2022/07/11 10:40:51;;;;;;;4.25;0.90;;;;;;;17.03;61.91;96849.44;5009035;28;20823;-77
2022/07/11 10:43:36;;;;;;;3.85;1.05;;;;;;;16.89;60.96;96855.31;5008616;28;20512;-77
2022/07/11 10:46:04;;;;;;;4.68;1.00;;;;;;;16.77;61.31;96863.59;5008515;28;20107;-77
2022/07/11 10:48:33;;;;;;;2.05;1.00;;;;;;;16.84;62.94;96868.50;5009027;28;20053;-77
2022/07/11 10:51:12;;;;;;;5.65;0.98;;;;;;;16.77;62.05;96868.28;5008999;28;20524;-78
2022/07/11 10:53:45;;;;;;;2.13;0.90;;;;;;;16.82;62.82;96865.31;5008766;28;20045;-78
2022/07/11 10:56:25;;;;;;;4.65;1.20;;;;;;;16.84;63.15;96863.81;5023837;28;20507;-77
2022/07/11 10:59:03;;;;;;;3.10;1.02;;;;;;;16.78;63.57;96870.69;5028236;28;20045;-79
2022/07/11 11:01:30;;;;;;;2.50;0.90;;;;;;;16.74;63.17;96875.28;5028490;28;20052;-77
2022/07/11 11:04:42;;;;;;;4.50;1.13;;;;;;;16.71;63.78;96870.47;5028475;28;20472;-77
2022/07/11 11:07:28;;;;;;;2.70;1.30;;;;;;;16.73;62.86;96876.41;5028122;28;20037;-77
2022/07/11 11:09:54;;;;;;;2.42;0.93;;;;;;;16.79;63.13;96866.78;5028357;28;20049;-80
2022/07/11 11:13:04;;;;;;;2.92;0.93;;;;;;;16.75;62.83;96876.88;5027996;28;20060;-78
2022/07/11 11:15:34;;;;;;;2.65;1.00;;;;;;;16.91;63.36;96869.53;5027796;28;20038;-80
2022/07/11 11:18:35;;;;;;;2.63;0.82;;;;;;;16.79;64.18;96872.28;5028332;28;20057;-79
2022/07/11 11:21:23;;;;;;;4.65;1.40;;;;;;;16.74;63.42;96869.78;5027601;28;20053;-77
2022/07/11 11:24:16;;;;;;;2.63;1.00;;;;;;;16.73;63.04;96879.16;5023242;28;20052;-78
2022/07/11 11:26:44;;;;;;;;;;;;;;;16.79;64.38;96875.03;5031814;28;20124;-77
2022/07/11 11:29:12;;;;;;;3.20;1.10;;;;;;;16.86;63.96;96875.28;5008170;28;19928;-78
2022/07/11 11:31:38;;;;;;;3.25;1.35;;;;;;;16.91;63.63;96864.03;5008550;28;20046;-77
2022/07/11 11:34:05;;;;;;;5.20;1.55;;;;;;;17.00;62.61;96861.13;5008221;28;20053;-77
2022/07/11 11:36:32;;;;;;;4.15;1.05;;;;;;;17.06;63.56;96864.44;5008119;28;20484;-78
2022/07/11 11:38:59;;;;;;;2.60;1.08;;;;;;;17.07;63.27;96860.53;5008160;28;20042;-78
2022/07/11 11:41:27;;;;;;;3.30;1.02;;;;;;;17.09;64.63;96855.50;5007769;28;20046;-80